sensor_id;sensor_type;location;lat;lon;timestamp;P1;durP1;ratioP1;P2;durP2;ratioP2
10920;SDS011;5513;50.580;8.818;2023-08-01T00:01:52;0.10;;;0.10;;
10920;SDS011;5513;50.580;8.818;2023-08-01T00:04:39;0.00;;;0.00;;
10920;SDS011;5513;50.580;8.818;2023-08-01T00:07:28;0.07;;;0.07;;
10920;SDS011;5513;50.580;8.818;2023-08-01T00:10:15;0.10;;;0.10;;
10920;SDS011;5513;50.580;8.818;2023-08-01T00:13:02;0.10;;;0.10;;
10920;SDS011;5513;50.580;8.818;2023-08-01T00:15:49;0.10;;;0.10;;
10920;SDS011;5513;50.580;8.818;2023-08-01T00:18:51;0.10;;;0.10;;
10920;SDS011;5513;50.580;8.818;2023-08-01T00:21:38;0.10;;;0.10;;
10920;SDS011;5513;50.580;8.818;2023-08-01T00:24:26;0.00;;;0.00;;
10920;SDS011;5513;50.580;8.818;2023-08-01T00:27:13;0.10;;;0.10;;
10920;SDS011;5513;50.580;8.818;2023-08-01T00:30:00;0.10;;;0.10;;
10920;SDS011;5513;50.580;8.818;2023-08-01T00:32:47;0.03;;;0.03;;
10920;SDS011;5513;50.580;8.818;2023-08-01T00:35:34;0.10;;;0.10;;
10920;SDS011;5513;50.580;8.818;2023-08-01T00:38:21;0.10;;;0.10;;
10920;SDS011;5513;50.580;8.818;2023-08-01T00:41:09;0.10;;;0.10;;
10920;SDS011;5513;50.580;8.818;2023-08-01T00:43:56;0.10;;;0.10;;
10920;SDS011;5513;50.580;8.818;2023-08-01T00:46:43;0.10;;;0.10;;
10920;SDS011;5513;50.580;8.818;2023-08-01T00:49:30;0.10;;;0.10;;
10920;SDS011;5513;50.580;8.818;2023-08-01T00:52:19;0.10;;;0.10;;
10920;SDS011;5513;50.580;8.818;2023-08-01T00:55:06;0.10;;;0.10;;
10920;SDS011;5513;50.580;8.818;2023-08-01T00:57:56;0.00;;;0.00;;
10920;SDS011;5513;50.580;8.818;2023-08-01T01:00:43;0.10;;;0.10;;
10920;SDS011;5513;50.580;8.818;2023-08-01T01:03:29;0.10;;;0.10;;
10920;SDS011;5513;50.580;8.818;2023-08-01T01:06:18;0.00;;;0.00;;
10920;SDS011;5513;50.580;8.818;2023-08-01T01:09:15;0.10;;;0.10;;
10920;SDS011;5513;50.580;8.818;2023-08-01T01:12:02;0.10;;;0.10;;
10920;SDS011;5513;50.580;8.818;2023-08-01T01:14:51;0.10;;;0.10;;
10920;SDS011;5513;50.580;8.818;2023-08-01T01:17:38;0.10;;;0.10;;
10920;SDS011;5513;50.580;8.818;2023-08-01T01:23:20;0.10;;;0.10;;
10920;SDS011;5513;50.580;8.818;2023-08-01T01:26:07;0.10;;;0.10;;
10920;SDS011;5513;50.580;8.818;2023-08-01T01:28:56;0.10;;;0.10;;
10920;SDS011;5513;50.580;8.818;2023-08-01T01:31:43;0.00;;;0.00;;
10920;SDS011;5513;50.580;8.818;2023-08-01T01:34:30;0.10;;;0.10;;
10920;SDS011;5513;50.580;8.818;2023-08-01T01:37:18;0.00;;;0.00;;
10920;SDS011;5513;50.580;8.818;2023-08-01T01:40:06;0.00;;;0.00;;
10920;SDS011;5513;50.580;8.818;2023-08-01T01:42:53;0.10;;;0.10;;
10920;SDS011;5513;50.580;8.818;2023-08-01T01:45:40;0.00;;;0.00;;
10920;SDS011;5513;50.580;8.818;2023-08-01T01:48:27;0.10;;;0.10;;
10920;SDS011;5513;50.580;8.818;2023-08-01T01:51:14;0.10;;;0.10;;
10920;SDS011;5513;50.580;8.818;2023-08-01T01:54:02;0.00;;;0.00;;
10920;SDS011;5513;50.580;8.818;2023-08-01T01:56:49;7.23;;;4.87;;
10920;SDS011;5513;50.580;8.818;2023-08-01T01:59:36;5.53;;;4.10;;
10920;SDS011;5513;50.580;8.818;2023-08-01T02:02:23;7.13;;;4.43;;
10920;SDS011;5513;50.580;8.818;2023-08-01T02:05:10;5.33;;;3.80;;
10920;SDS011;5513;50.580;8.818;2023-08-01T02:07:57;4.63;;;3.07;;
10920;SDS011;5513;50.580;8.818;2023-08-01T02:10:45;6.37;;;3.67;;
10920;SDS011;5513;50.580;8.818;2023-08-01T02:13:33;5.27;;;3.70;;
10920;SDS011;5513;50.580;8.818;2023-08-01T02:16:20;4.63;;;3.33;;
10920;SDS011;5513;50.580;8.818;2023-08-01T02:19:07;5.57;;;4.00;;
10920;SDS011;5513;50.580;8.818;2023-08-01T02:21:54;5.53;;;4.03;;
10920;SDS011;5513;50.580;8.818;2023-08-01T02:24:41;7.70;;;4.67;;
10920;SDS011;5513;50.580;8.818;2023-08-01T02:27:30;5.30;;;3.70;;
10920;SDS011;5513;50.580;8.818;2023-08-01T02:30:17;6.30;;;4.27;;
10920;SDS011;5513;50.580;8.818;2023-08-01T02:33:03;6.23;;;3.83;;
10920;SDS011;5513;50.580;8.818;2023-08-01T02:35:50;9.43;;;4.53;;
10920;SDS011;5513;50.580;8.818;2023-08-01T02:38:37;6.10;;;4.77;;
10920;SDS011;5513;50.580;8.818;2023-08-01T02:41:24;5.70;;;4.47;;
10920;SDS011;5513;50.580;8.818;2023-08-01T02:44:13;7.47;;;4.77;;
10920;SDS011;5513;50.580;8.818;2023-08-01T02:47:00;6.47;;;4.77;;
10920;SDS011;5513;50.580;8.818;2023-08-01T02:49:47;6.90;;;4.50;;
10920;SDS011;5513;50.580;8.818;2023-08-01T02:52:34;7.37;;;4.43;;
10920;SDS011;5513;50.580;8.818;2023-08-01T02:55:21;6.10;;;4.50;;
10920;SDS011;5513;50.580;8.818;2023-08-01T02:58:08;6.13;;;4.50;;
10920;SDS011;5513;50.580;8.818;2023-08-01T03:00:56;6.83;;;3.70;;
10920;SDS011;5513;50.580;8.818;2023-08-01T03:03:42;5.60;;;3.80;;
10920;SDS011;5513;50.580;8.818;2023-08-01T03:06:29;4.67;;;3.47;;
10920;SDS011;5513;50.580;8.818;2023-08-01T03:09:16;4.23;;;3.37;;
10920;SDS011;5513;50.580;8.818;2023-08-01T03:12:03;6.47;;;3.63;;
10920;SDS011;5513;50.580;8.818;2023-08-01T03:14:50;8.13;;;4.43;;
10920;SDS011;5513;50.580;8.818;2023-08-01T03:17:39;5.40;;;3.80;;
10920;SDS011;5513;50.580;8.818;2023-08-01T03:20:26;4.87;;;3.70;;
10920;SDS011;5513;50.580;8.818;2023-08-01T03:23:12;7.03;;;3.60;;
10920;SDS011;5513;50.580;8.818;2023-08-01T03:25:59;5.27;;;3.90;;
10920;SDS011;5513;50.580;8.818;2023-08-01T03:28:46;7.57;;;4.67;;
10920;SDS011;5513;50.580;8.818;2023-08-01T03:31:33;8.23;;;5.27;;
10920;SDS011;5513;50.580;8.818;2023-08-01T03:34:22;7.37;;;5.30;;
10920;SDS011;5513;50.580;8.818;2023-08-01T03:37:09;7.80;;;5.17;;
10920;SDS011;5513;50.580;8.818;2023-08-01T03:39:56;5.63;;;4.50;;
10920;SDS011;5513;50.580;8.818;2023-08-01T03:42:43;9.70;;;5.07;;
10920;SDS011;5513;50.580;8.818;2023-08-01T03:45:30;7.30;;;4.57;;
10920;SDS011;5513;50.580;8.818;2023-08-01T03:48:17;8.63;;;5.27;;
10920;SDS011;5513;50.580;8.818;2023-08-01T03:51:05;6.77;;;4.80;;
10920;SDS011;5513;50.580;8.818;2023-08-01T03:53:52;7.77;;;4.47;;
10920;SDS011;5513;50.580;8.818;2023-08-01T03:56:57;6.47;;;4.40;;
10920;SDS011;5513;50.580;8.818;2023-08-01T03:59:44;7.20;;;4.93;;
10920;SDS011;5513;50.580;8.818;2023-08-01T04:02:32;6.47;;;4.23;;
10920;SDS011;5513;50.580;8.818;2023-08-01T04:05:19;5.37;;;4.40;;
10920;SDS011;5513;50.580;8.818;2023-08-01T04:08:07;7.87;;;4.43;;
10920;SDS011;5513;50.580;8.818;2023-08-01T04:10:54;6.40;;;4.30;;
10920;SDS011;5513;50.580;8.818;2023-08-01T04:13:41;4.03;;;3.63;;
10920;SDS011;5513;50.580;8.818;2023-08-01T04:16:28;6.13;;;3.37;;
10920;SDS011;5513;50.580;8.818;2023-08-01T04:19:15;7.33;;;3.00;;
10920;SDS011;5513;50.580;8.818;2023-08-01T04:22:02;4.57;;;2.63;;
10920;SDS011;5513;50.580;8.818;2023-08-01T04:24:51;4.43;;;2.63;;
10920;SDS011;5513;50.580;8.818;2023-08-01T04:27:37;4.40;;;2.40;;
10920;SDS011;5513;50.580;8.818;2023-08-01T04:30:24;5.57;;;2.57;;
10920;SDS011;5513;50.580;8.818;2023-08-01T04:33:11;3.00;;;2.10;;
10920;SDS011;5513;50.580;8.818;2023-08-01T04:35:58;5.00;;;2.50;;
10920;SDS011;5513;50.580;8.818;2023-08-01T04:38:44;4.53;;;2.30;;
10920;SDS011;5513;50.580;8.818;2023-08-01T04:41:32;6.10;;;2.60;;
10920;SDS011;5513;50.580;8.818;2023-08-01T04:44:19;4.53;;;2.40;;
10920;SDS011;5513;50.580;8.818;2023-08-01T04:47:06;3.33;;;2.33;;
10920;SDS011;5513;50.580;8.818;2023-08-01T04:49:53;3.70;;;2.60;;
10920;SDS011;5513;50.580;8.818;2023-08-01T04:52:40;3.87;;;2.40;;
10920;SDS011;5513;50.580;8.818;2023-08-01T04:55:26;4.70;;;2.07;;
10920;SDS011;5513;50.580;8.818;2023-08-01T04:58:15;3.60;;;1.87;;
10920;SDS011;5513;50.580;8.818;2023-08-01T05:01:02;3.30;;;2.20;;
10920;SDS011;5513;50.580;8.818;2023-08-01T05:03:49;3.87;;;2.30;;
10920;SDS011;5513;50.580;8.818;2023-08-01T05:06:36;3.33;;;2.00;;
10920;SDS011;5513;50.580;8.818;2023-08-01T05:09:23;2.50;;;1.70;;
10920;SDS011;5513;50.580;8.818;2023-08-01T05:12:10;3.47;;;2.00;;
10920;SDS011;5513;50.580;8.818;2023-08-01T05:14:58;1.93;;;1.50;;
10920;SDS011;5513;50.580;8.818;2023-08-01T05:17:45;2.93;;;1.47;;
10920;SDS011;5513;50.580;8.818;2023-08-01T05:20:32;5.97;;;1.83;;
10920;SDS011;5513;50.580;8.818;2023-08-01T05:23:19;1.90;;;1.27;;
10920;SDS011;5513;50.580;8.818;2023-08-01T05:26:06;1.20;;;1.10;;
10920;SDS011;5513;50.580;8.818;2023-08-01T05:28:53;2.20;;;1.13;;
10920;SDS011;5513;50.580;8.818;2023-08-01T05:31:41;1.13;;;1.03;;
10920;SDS011;5513;50.580;8.818;2023-08-01T05:34:28;2.83;;;1.10;;
10920;SDS011;5513;50.580;8.818;2023-08-01T05:37:15;1.87;;;0.90;;
10920;SDS011;5513;50.580;8.818;2023-08-01T05:40:02;1.50;;;1.00;;
10920;SDS011;5513;50.580;8.818;2023-08-01T05:42:49;1.80;;;0.70;;
10920;SDS011;5513;50.580;8.818;2023-08-01T05:45:36;0.70;;;0.60;;
10920;SDS011;5513;50.580;8.818;2023-08-01T05:48:24;1.63;;;0.67;;
10920;SDS011;5513;50.580;8.818;2023-08-01T05:51:11;1.53;;;0.60;;
10920;SDS011;5513;50.580;8.818;2023-08-01T05:54:00;1.37;;;1.00;;
10920;SDS011;5513;50.580;8.818;2023-08-01T05:56:48;1.57;;;0.90;;
10920;SDS011;5513;50.580;8.818;2023-08-01T05:59:35;3.00;;;1.30;;
10920;SDS011;5513;50.580;8.818;2023-08-01T06:02:22;1.90;;;1.17;;
10920;SDS011;5513;50.580;8.818;2023-08-01T06:05:11;2.60;;;1.00;;
10920;SDS011;5513;50.580;8.818;2023-08-01T06:07:58;2.40;;;1.33;;
10920;SDS011;5513;50.580;8.818;2023-08-01T06:10:45;1.93;;;1.10;;
10920;SDS011;5513;50.580;8.818;2023-08-01T06:13:32;1.40;;;1.30;;
10920;SDS011;5513;50.580;8.818;2023-08-01T06:16:18;1.20;;;1.10;;
10920;SDS011;5513;50.580;8.818;2023-08-01T06:19:05;2.00;;;1.00;;
10920;SDS011;5513;50.580;8.818;2023-08-01T06:21:53;3.40;;;1.30;;
10920;SDS011;5513;50.580;8.818;2023-08-01T06:24:41;2.10;;;1.90;;
10920;SDS011;5513;50.580;8.818;2023-08-01T06:27:29;2.60;;;1.83;;
10920;SDS011;5513;50.580;8.818;2023-08-01T06:30:16;2.40;;;1.77;;
10920;SDS011;5513;50.580;8.818;2023-08-01T06:33:02;2.97;;;1.90;;
10920;SDS011;5513;50.580;8.818;2023-08-01T06:35:49;2.37;;;1.90;;
10920;SDS011;5513;50.580;8.818;2023-08-01T06:38:38;3.70;;;2.30;;
10920;SDS011;5513;50.580;8.818;2023-08-01T06:41:24;5.30;;;2.60;;
10920;SDS011;5513;50.580;8.818;2023-08-01T06:44:12;3.17;;;2.87;;
10920;SDS011;5513;50.580;8.818;2023-08-01T06:46:59;3.73;;;3.00;;
10920;SDS011;5513;50.580;8.818;2023-08-01T06:49:46;4.03;;;3.03;;
10920;SDS011;5513;50.580;8.818;2023-08-01T06:52:33;4.70;;;3.17;;
10920;SDS011;5513;50.580;8.818;2023-08-01T06:55:21;5.00;;;3.73;;
10920;SDS011;5513;50.580;8.818;2023-08-01T06:58:08;5.43;;;3.70;;
10920;SDS011;5513;50.580;8.818;2023-08-01T07:00:55;7.23;;;4.20;;
10920;SDS011;5513;50.580;8.818;2023-08-01T07:03:42;4.30;;;3.90;;
10920;SDS011;5513;50.580;8.818;2023-08-01T07:06:29;6.67;;;4.97;;
10920;SDS011;5513;50.580;8.818;2023-08-01T07:09:15;5.13;;;4.63;;
10920;SDS011;5513;50.580;8.818;2023-08-01T07:12:05;5.40;;;4.90;;
10920;SDS011;5513;50.580;8.818;2023-08-01T07:14:52;5.33;;;4.83;;
10920;SDS011;5513;50.580;8.818;2023-08-01T07:17:39;7.40;;;5.10;;
10920;SDS011;5513;50.580;8.818;2023-08-01T07:20:26;5.77;;;5.17;;
10920;SDS011;5513;50.580;8.818;2023-08-01T07:23:13;5.30;;;4.80;;
10920;SDS011;5513;50.580;8.818;2023-08-01T07:26:00;6.03;;;5.07;;
10920;SDS011;5513;50.580;8.818;2023-08-01T07:28:48;5.20;;;4.17;;
10920;SDS011;5513;50.580;8.818;2023-08-01T07:31:35;4.20;;;3.80;;
10920;SDS011;5513;50.580;8.818;2023-08-01T07:34:22;5.27;;;3.60;;
10920;SDS011;5513;50.580;8.818;2023-08-01T07:37:09;4.73;;;3.30;;
10920;SDS011;5513;50.580;8.818;2023-08-01T07:39:56;7.83;;;4.00;;
10920;SDS011;5513;50.580;8.818;2023-08-01T07:42:43;4.73;;;3.83;;
10920;SDS011;5513;50.580;8.818;2023-08-01T07:45:33;5.27;;;3.67;;
10920;SDS011;5513;50.580;8.818;2023-08-01T07:48:20;4.37;;;3.53;;
10920;SDS011;5513;50.580;8.818;2023-08-01T07:51:07;3.60;;;3.17;;
10920;SDS011;5513;50.580;8.818;2023-08-01T07:53:56;4.83;;;3.63;;
10920;SDS011;5513;50.580;8.818;2023-08-01T07:56:43;4.00;;;3.20;;
10920;SDS011;5513;50.580;8.818;2023-08-01T07:59:33;4.80;;;3.50;;
10920;SDS011;5513;50.580;8.818;2023-08-01T08:02:22;5.87;;;3.77;;
10920;SDS011;5513;50.580;8.818;2023-08-01T08:05:09;4.10;;;3.00;;
10920;SDS011;5513;50.580;8.818;2023-08-01T08:07:56;5.17;;;3.30;;
10920;SDS011;5513;50.580;8.818;2023-08-01T08:10:43;6.17;;;3.20;;
10920;SDS011;5513;50.580;8.818;2023-08-01T08:13:30;6.57;;;3.17;;
10920;SDS011;5513;50.580;8.818;2023-08-01T08:16:17;11.03;;;5.57;;
10920;SDS011;5513;50.580;8.818;2023-08-01T08:19:05;11.80;;;7.10;;
10920;SDS011;5513;50.580;8.818;2023-08-01T08:21:52;9.03;;;3.23;;
10920;SDS011;5513;50.580;8.818;2023-08-01T08:24:39;6.00;;;3.37;;
10920;SDS011;5513;50.580;8.818;2023-08-01T08:27:26;5.17;;;2.73;;
10920;SDS011;5513;50.580;8.818;2023-08-01T08:30:13;7.07;;;3.17;;
10920;SDS011;5513;50.580;8.818;2023-08-01T08:33:00;6.07;;;3.60;;
10920;SDS011;5513;50.580;8.818;2023-08-01T08:35:50;5.93;;;3.63;;
10920;SDS011;5513;50.580;8.818;2023-08-01T08:38:37;5.30;;;2.53;;
10920;SDS011;5513;50.580;8.818;2023-08-01T08:41:26;5.77;;;3.10;;
10920;SDS011;5513;50.580;8.818;2023-08-01T08:44:14;7.17;;;3.33;;
10920;SDS011;5513;50.580;8.818;2023-08-01T08:47:02;5.70;;;2.70;;
10920;SDS011;5513;50.580;8.818;2023-08-01T08:49:50;6.40;;;2.90;;
10920;SDS011;5513;50.580;8.818;2023-08-01T08:52:40;6.10;;;3.60;;
10920;SDS011;5513;50.580;8.818;2023-08-01T08:55:28;8.43;;;2.73;;
10920;SDS011;5513;50.580;8.818;2023-08-01T08:58:16;6.07;;;3.10;;
10920;SDS011;5513;50.580;8.818;2023-08-01T09:01:04;7.87;;;3.90;;
10920;SDS011;5513;50.580;8.818;2023-08-01T09:03:52;3.70;;;2.73;;
10920;SDS011;5513;50.580;8.818;2023-08-01T09:06:44;5.10;;;2.83;;
10920;SDS011;5513;50.580;8.818;2023-08-01T09:09:37;5.00;;;2.47;;
10920;SDS011;5513;50.580;8.818;2023-08-01T09:12:24;8.47;;;3.23;;
10920;SDS011;5513;50.580;8.818;2023-08-01T09:15:12;5.10;;;2.93;;
10920;SDS011;5513;50.580;8.818;2023-08-01T09:18:00;6.63;;;2.70;;
10920;SDS011;5513;50.580;8.818;2023-08-01T09:20:47;5.17;;;3.40;;
10920;SDS011;5513;50.580;8.818;2023-08-01T09:23:36;5.80;;;2.90;;
10920;SDS011;5513;50.580;8.818;2023-08-01T09:26:24;5.33;;;2.43;;
10920;SDS011;5513;50.580;8.818;2023-08-01T09:29:11;6.47;;;3.53;;
10920;SDS011;5513;50.580;8.818;2023-08-01T09:31:58;5.27;;;2.50;;
10920;SDS011;5513;50.580;8.818;2023-08-01T09:34:45;6.03;;;2.40;;
10920;SDS011;5513;50.580;8.818;2023-08-01T09:37:38;9.27;;;4.47;;
10920;SDS011;5513;50.580;8.818;2023-08-01T09:40:35;6.30;;;3.10;;
10920;SDS011;5513;50.580;8.818;2023-08-01T09:43:23;5.90;;;3.27;;
10920;SDS011;5513;50.580;8.818;2023-08-01T09:46:11;5.60;;;2.70;;
10920;SDS011;5513;50.580;8.818;2023-08-01T09:49:06;3.90;;;2.57;;
10920;SDS011;5513;50.580;8.818;2023-08-01T09:51:54;4.10;;;2.60;;
10920;SDS011;5513;50.580;8.818;2023-08-01T09:54:42;5.30;;;3.00;;
10920;SDS011;5513;50.580;8.818;2023-08-01T09:57:29;6.10;;;3.07;;
10920;SDS011;5513;50.580;8.818;2023-08-01T10:00:19;4.87;;;2.87;;
10920;SDS011;5513;50.580;8.818;2023-08-01T10:03:07;5.23;;;2.70;;
10920;SDS011;5513;50.580;8.818;2023-08-01T10:05:56;4.17;;;2.70;;
10920;SDS011;5513;50.580;8.818;2023-08-01T10:08:46;3.13;;;2.37;;
10920;SDS011;5513;50.580;8.818;2023-08-01T10:11:35;3.20;;;2.30;;
10920;SDS011;5513;50.580;8.818;2023-08-01T10:14:26;3.20;;;2.10;;
10920;SDS011;5513;50.580;8.818;2023-08-01T10:17:16;3.77;;;2.07;;
10920;SDS011;5513;50.580;8.818;2023-08-01T10:20:08;4.37;;;2.60;;
10920;SDS011;5513;50.580;8.818;2023-08-01T10:22:59;4.00;;;2.20;;
10920;SDS011;5513;50.580;8.818;2023-08-01T10:25:48;3.43;;;2.00;;
10920;SDS011;5513;50.580;8.818;2023-08-01T10:28:41;5.50;;;3.50;;
10920;SDS011;5513;50.580;8.818;2023-08-01T10:31:37;4.07;;;3.08;;
10920;SDS011;5513;50.580;8.818;2023-08-01T10:34:26;3.73;;;2.00;;
10920;SDS011;5513;50.580;8.818;2023-08-01T10:37:13;2.77;;;1.80;;
10920;SDS011;5513;50.580;8.818;2023-08-01T10:40:00;3.00;;;1.93;;
10920;SDS011;5513;50.580;8.818;2023-08-01T10:42:47;4.80;;;2.57;;
10920;SDS011;5513;50.580;8.818;2023-08-01T10:45:36;3.63;;;2.00;;
10920;SDS011;5513;50.580;8.818;2023-08-01T10:48:24;4.33;;;2.10;;
10920;SDS011;5513;50.580;8.818;2023-08-01T10:51:13;4.50;;;2.23;;
10920;SDS011;5513;50.580;8.818;2023-08-01T10:54:00;3.27;;;2.10;;
10920;SDS011;5513;50.580;8.818;2023-08-01T10:56:47;3.43;;;2.07;;
10920;SDS011;5513;50.580;8.818;2023-08-01T10:59:35;4.87;;;2.60;;
10920;SDS011;5513;50.580;8.818;2023-08-01T11:02:28;2.42;;;1.92;;
10920;SDS011;5513;50.580;8.818;2023-08-01T11:05:15;3.08;;;2.10;;
10920;SDS011;5513;50.580;8.818;2023-08-01T11:08:05;3.53;;;2.27;;
10920;SDS011;5513;50.580;8.818;2023-08-01T11:10:52;4.70;;;2.27;;
10920;SDS011;5513;50.580;8.818;2023-08-01T11:13:39;3.70;;;2.20;;
10920;SDS011;5513;50.580;8.818;2023-08-01T11:16:26;4.27;;;2.70;;
10920;SDS011;5513;50.580;8.818;2023-08-01T11:19:18;4.47;;;2.30;;
10920;SDS011;5513;50.580;8.818;2023-08-01T11:22:08;4.20;;;2.77;;
10920;SDS011;5513;50.580;8.818;2023-08-01T11:25:01;4.00;;;2.60;;
10920;SDS011;5513;50.580;8.818;2023-08-01T11:27:49;5.18;;;2.17;;
10920;SDS011;5513;50.580;8.818;2023-08-01T11:30:36;3.75;;;2.00;;
10920;SDS011;5513;50.580;8.818;2023-08-01T11:33:25;4.10;;;2.20;;
10920;SDS011;5513;50.580;8.818;2023-08-01T11:36:12;2.08;;;1.83;;
10920;SDS011;5513;50.580;8.818;2023-08-01T11:39:00;4.10;;;2.35;;
10920;SDS011;5513;50.580;8.818;2023-08-01T11:41:50;3.42;;;1.92;;
10920;SDS011;5513;50.580;8.818;2023-08-01T11:44:38;4.35;;;2.03;;
10920;SDS011;5513;50.580;8.818;2023-08-01T11:47:25;2.92;;;2.30;;
10920;SDS011;5513;50.580;8.818;2023-08-01T11:50:13;4.90;;;2.78;;
10920;SDS011;5513;50.580;8.818;2023-08-01T11:53:00;5.07;;;2.13;;
10920;SDS011;5513;50.580;8.818;2023-08-01T11:55:47;3.65;;;2.58;;
10920;SDS011;5513;50.580;8.818;2023-08-01T11:58:40;4.05;;;2.13;;
10920;SDS011;5513;50.580;8.818;2023-08-01T12:01:28;3.78;;;2.25;;
10920;SDS011;5513;50.580;8.818;2023-08-01T12:04:23;3.45;;;1.90;;
10920;SDS011;5513;50.580;8.818;2023-08-01T12:07:12;2.80;;;1.85;;
10920;SDS011;5513;50.580;8.818;2023-08-01T12:10:00;3.85;;;1.98;;
10920;SDS011;5513;50.580;8.818;2023-08-01T12:12:48;4.63;;;2.17;;
10920;SDS011;5513;50.580;8.818;2023-08-01T12:15:37;2.80;;;1.95;;
10920;SDS011;5513;50.580;8.818;2023-08-01T12:18:24;3.08;;;2.03;;
10920;SDS011;5513;50.580;8.818;2023-08-01T12:21:33;2.53;;;2.00;;
10920;SDS011;5513;50.580;8.818;2023-08-01T12:24:22;4.95;;;1.88;;
10920;SDS011;5513;50.580;8.818;2023-08-01T12:27:13;3.40;;;1.80;;
10920;SDS011;5513;50.580;8.818;2023-08-01T12:30:02;3.25;;;1.77;;
10920;SDS011;5513;50.580;8.818;2023-08-01T12:32:52;3.08;;;1.92;;
10920;SDS011;5513;50.580;8.818;2023-08-01T12:35:40;3.85;;;2.53;;
10920;SDS011;5513;50.580;8.818;2023-08-01T12:38:29;3.05;;;2.00;;
10920;SDS011;5513;50.580;8.818;2023-08-01T12:41:16;4.15;;;2.10;;
10920;SDS011;5513;50.580;8.818;2023-08-01T12:44:03;4.78;;;2.20;;
10920;SDS011;5513;50.580;8.818;2023-08-01T12:46:51;6.40;;;2.40;;
10920;SDS011;5513;50.580;8.818;2023-08-01T12:49:39;4.00;;;2.28;;
10920;SDS011;5513;50.580;8.818;2023-08-01T12:52:26;3.78;;;2.42;;
10920;SDS011;5513;50.580;8.818;2023-08-01T12:55:14;2.67;;;1.55;;
10920;SDS011;5513;50.580;8.818;2023-08-01T12:58:01;2.88;;;1.35;;
10920;SDS011;5513;50.580;8.818;2023-08-01T13:00:48;3.03;;;1.60;;
10920;SDS011;5513;50.580;8.818;2023-08-01T13:03:36;2.20;;;1.63;;
10920;SDS011;5513;50.580;8.818;2023-08-01T13:06:24;1.80;;;1.30;;
10920;SDS011;5513;50.580;8.818;2023-08-01T13:09:12;2.30;;;1.60;;
10920;SDS011;5513;50.580;8.818;2023-08-01T13:12:02;2.33;;;1.40;;
10920;SDS011;5513;50.580;8.818;2023-08-01T13:14:50;2.20;;;1.27;;
10920;SDS011;5513;50.580;8.818;2023-08-01T13:17:48;1.95;;;1.50;;
10920;SDS011;5513;50.580;8.818;2023-08-01T13:20:36;4.03;;;1.35;;
10920;SDS011;5513;50.580;8.818;2023-08-01T13:23:25;6.50;;;3.53;;
10920;SDS011;5513;50.580;8.818;2023-08-01T13:26:13;2.38;;;1.58;;
10920;SDS011;5513;50.580;8.818;2023-08-01T13:29:00;3.10;;;1.33;;
10920;SDS011;5513;50.580;8.818;2023-08-01T13:31:50;4.15;;;1.80;;
10920;SDS011;5513;50.580;8.818;2023-08-01T13:34:40;2.33;;;1.50;;
10920;SDS011;5513;50.580;8.818;2023-08-01T13:37:27;2.53;;;1.42;;
10920;SDS011;5513;50.580;8.818;2023-08-01T13:40:16;2.13;;;1.30;;
10920;SDS011;5513;50.580;8.818;2023-08-01T13:43:03;4.57;;;1.65;;
10920;SDS011;5513;50.580;8.818;2023-08-01T13:45:51;2.23;;;1.60;;
10920;SDS011;5513;50.580;8.818;2023-08-01T13:48:39;5.20;;;1.87;;
10920;SDS011;5513;50.580;8.818;2023-08-01T13:51:26;4.30;;;2.30;;
10920;SDS011;5513;50.580;8.818;2023-08-01T13:54:17;4.37;;;1.90;;
10920;SDS011;5513;50.580;8.818;2023-08-01T13:57:06;4.37;;;2.30;;
10920;SDS011;5513;50.580;8.818;2023-08-01T13:59:53;3.77;;;2.30;;
10920;SDS011;5513;50.580;8.818;2023-08-01T14:02:59;3.53;;;1.90;;
10920;SDS011;5513;50.580;8.818;2023-08-01T14:05:48;2.83;;;1.87;;
10920;SDS011;5513;50.580;8.818;2023-08-01T14:08:35;4.63;;;1.70;;
10920;SDS011;5513;50.580;8.818;2023-08-01T14:11:22;3.47;;;1.52;;
10920;SDS011;5513;50.580;8.818;2023-08-01T14:14:11;9.13;;;1.80;;
10920;SDS011;5513;50.580;8.818;2023-08-01T14:17:01;7.28;;;1.77;;
10920;SDS011;5513;50.580;8.818;2023-08-01T14:19:48;1.45;;;1.35;;
10920;SDS011;5513;50.580;8.818;2023-08-01T14:22:35;3.65;;;1.40;;
10920;SDS011;5513;50.580;8.818;2023-08-01T14:25:21;2.03;;;1.42;;
10920;SDS011;5513;50.580;8.818;2023-08-01T14:28:08;3.22;;;1.73;;
10920;SDS011;5513;50.580;8.818;2023-08-01T14:30:59;2.35;;;1.40;;
10920;SDS011;5513;50.580;8.818;2023-08-01T14:33:46;2.33;;;1.20;;
10920;SDS011;5513;50.580;8.818;2023-08-01T14:36:33;2.15;;;1.88;;
10920;SDS011;5513;50.580;8.818;2023-08-01T14:39:20;2.22;;;1.50;;
10920;SDS011;5513;50.580;8.818;2023-08-01T14:42:07;3.40;;;1.80;;
10920;SDS011;5513;50.580;8.818;2023-08-01T14:44:54;2.17;;;1.70;;
10920;SDS011;5513;50.580;8.818;2023-08-01T14:47:43;3.55;;;1.80;;
10920;SDS011;5513;50.580;8.818;2023-08-01T14:50:30;3.60;;;1.90;;
10920;SDS011;5513;50.580;8.818;2023-08-01T14:53:17;4.53;;;2.58;;
10920;SDS011;5513;50.580;8.818;2023-08-01T14:56:04;4.35;;;2.60;;
10920;SDS011;5513;50.580;8.818;2023-08-01T14:58:53;2.45;;;2.25;;
10920;SDS011;5513;50.580;8.818;2023-08-01T15:01:40;3.58;;;2.33;;
10920;SDS011;5513;50.580;8.818;2023-08-01T15:04:28;4.13;;;2.40;;
10920;SDS011;5513;50.580;8.818;2023-08-01T15:07:15;3.35;;;2.08;;
10920;SDS011;5513;50.580;8.818;2023-08-01T15:10:03;2.63;;;1.85;;
10920;SDS011;5513;50.580;8.818;2023-08-01T15:12:50;2.10;;;1.90;;
10920;SDS011;5513;50.580;8.818;2023-08-01T15:15:37;2.20;;;1.70;;
10920;SDS011;5513;50.580;8.818;2023-08-01T15:18:23;2.35;;;1.60;;
10920;SDS011;5513;50.580;8.818;2023-08-01T15:21:12;3.13;;;1.65;;
10920;SDS011;5513;50.580;8.818;2023-08-01T15:23:59;2.22;;;1.60;;
10920;SDS011;5513;50.580;8.818;2023-08-01T15:26:46;1.90;;;1.80;;
10920;SDS011;5513;50.580;8.818;2023-08-01T15:29:32;2.83;;;1.80;;
10920;SDS011;5513;50.580;8.818;2023-08-01T15:32:19;3.15;;;1.92;;
10920;SDS011;5513;50.580;8.818;2023-08-01T15:35:07;4.05;;;2.35;;
10920;SDS011;5513;50.580;8.818;2023-08-01T15:37:55;2.38;;;2.15;;
10920;SDS011;5513;50.580;8.818;2023-08-01T15:40:42;2.67;;;2.13;;
10920;SDS011;5513;50.580;8.818;2023-08-01T15:43:29;3.53;;;1.80;;
10920;SDS011;5513;50.580;8.818;2023-08-01T15:46:16;2.47;;;1.65;;
10920;SDS011;5513;50.580;8.818;2023-08-01T15:49:03;2.10;;;1.90;;
10920;SDS011;5513;50.580;8.818;2023-08-01T15:51:50;2.03;;;1.83;;
10920;SDS011;5513;50.580;8.818;2023-08-01T15:54:38;3.72;;;2.00;;
10920;SDS011;5513;50.580;8.818;2023-08-01T15:57:25;2.75;;;2.00;;
10920;SDS011;5513;50.580;8.818;2023-08-01T16:00:11;2.00;;;1.77;;
10920;SDS011;5513;50.580;8.818;2023-08-01T16:02:59;2.63;;;2.20;;
10920;SDS011;5513;50.580;8.818;2023-08-01T16:05:49;4.20;;;2.13;;
10920;SDS011;5513;50.580;8.818;2023-08-01T16:08:36;3.42;;;2.00;;
10920;SDS011;5513;50.580;8.818;2023-08-01T16:11:24;2.07;;;1.90;;
10920;SDS011;5513;50.580;8.818;2023-08-01T16:14:11;3.53;;;1.93;;
10920;SDS011;5513;50.580;8.818;2023-08-01T16:17:01;2.43;;;2.20;;
10920;SDS011;5513;50.580;8.818;2023-08-01T16:19:48;2.90;;;2.30;;
10920;SDS011;5513;50.580;8.818;2023-08-01T16:22:35;2.57;;;2.00;;
10920;SDS011;5513;50.580;8.818;2023-08-01T16:25:22;2.10;;;1.90;;
10920;SDS011;5513;50.580;8.818;2023-08-01T16:28:10;3.53;;;2.30;;
10920;SDS011;5513;50.580;8.818;2023-08-01T16:30:56;2.23;;;1.83;;
10920;SDS011;5513;50.580;8.818;2023-08-01T16:33:43;2.55;;;1.92;;
10920;SDS011;5513;50.580;8.818;2023-08-01T16:36:30;3.20;;;2.30;;
10920;SDS011;5513;50.580;8.818;2023-08-01T16:39:19;2.73;;;2.07;;
10920;SDS011;5513;50.580;8.818;2023-08-01T16:42:06;4.57;;;2.30;;
10920;SDS011;5513;50.580;8.818;2023-08-01T16:44:54;2.83;;;1.30;;
10920;SDS011;5513;50.580;8.818;2023-08-01T16:47:41;4.30;;;1.37;;
10920;SDS011;5513;50.580;8.818;2023-08-01T16:50:28;3.70;;;1.50;;
10920;SDS011;5513;50.580;8.818;2023-08-01T16:53:15;3.20;;;1.20;;
10920;SDS011;5513;50.580;8.818;2023-08-01T16:56:02;1.60;;;1.07;;
10920;SDS011;5513;50.580;8.818;2023-08-01T16:58:48;2.73;;;1.10;;
10920;SDS011;5513;50.580;8.818;2023-08-01T17:01:37;5.50;;;1.50;;
10920;SDS011;5513;50.580;8.818;2023-08-01T17:04:23;2.60;;;1.30;;
10920;SDS011;5513;50.580;8.818;2023-08-01T17:07:12;3.87;;;1.60;;
10920;SDS011;5513;50.580;8.818;2023-08-01T17:10:00;2.33;;;1.50;;